Time;durP1;ratioP1;P1;durP2;ratioP2;P2;SDS_P1;SDS_P2;PMS_P1;PMS_P2;Temp;Humidity;BMP_temperature;BMP_pressure;BME280_temperature;BME280_humidity;BME280_pressure;Samples;Min_cycle;Max_cycle;Signal;HPM_P1;HPM_P2
2022/05/13 00:01:05;;;;;;;0.10;0.10;;;11.10;99.90;;;;;;5072929;28;20090;-82
2022/05/13 00:03:32;;;;;;;0.10;0.10;;;11.20;99.90;;;;;;5072791;28;20044;-85
2022/05/13 00:05:59;;;;;;;0.10;0.10;;;11.20;99.90;;;;;;5072514;28;20101;-85
2022/05/13 00:08:26;;;;;;;0.10;0.10;;;11.20;99.90;;;;;;5056451;28;20040;-85
2022/05/13 00:10:54;;;;;;;0.10;0.10;;;11.30;99.90;;;;;;5073201;28;20064;-85
2022/05/13 00:13:21;;;;;;;0.10;0.10;;;11.30;99.90;;;;;;5089343;28;20504;-82
2022/05/13 00:15:48;;;;;;;0.10;0.10;;;11.30;99.90;;;;;;5089109;28;20036;-85
2022/05/13 00:18:16;;;;;;;0.00;0.00;;;11.30;99.90;;;;;;5056895;28;20040;-85
2022/05/13 00:20:43;;;;;;;0.10;0.10;;;11.30;99.90;;;;;;5072792;28;20589;-84
2022/05/13 00:23:10;;;;;;;0.10;0.10;;;11.30;99.90;;;;;;5073008;28;20131;-84
2022/05/13 00:25:37;;;;;;;0.10;0.10;;;11.40;99.90;;;;;;5090048;28;20382;-82
2022/05/13 00:28:06;;;;;;;0.10;0.10;;;11.40;99.90;;;;;;5072453;28;20064;-85
2022/05/13 00:30:37;;;;;;;0.10;0.10;;;11.40;99.90;;;;;;5105954;28;20126;-85
2022/05/13 00:33:04;;;;;;;0.10;0.10;;;11.40;99.90;;;;;;5088917;28;20063;-86
2022/05/13 00:35:32;;;;;;;0.00;0.00;;;11.50;99.90;;;;;;5089901;28;20120;-85
2022/05/13 00:37:59;;;;;;;0.10;0.10;;;11.50;99.90;;;;;;5089158;28;20044;-85
2022/05/13 00:40:26;;;;;;;0.00;0.00;;;11.50;99.90;;;;;;5072496;28;20101;-85
2022/05/13 00:42:59;;;;;;;0.10;0.10;;;11.50;99.90;;;;;;5055913;28;20194;-85
2022/05/13 00:45:26;;;;;;;0.10;0.10;;;11.50;99.90;;;;;;5099484;28;20067;-82
2022/05/13 00:47:53;;;;;;;0.00;0.00;;;11.60;99.90;;;;;;5092525;28;20040;-85
2022/05/13 00:50:20;;;;;;;0.00;0.00;;;11.60;99.90;;;;;;5109256;28;20489;-85
2022/05/13 00:52:49;;;;;;;0.10;0.10;;;11.60;99.90;;;;;;5108816;28;20040;-82
2022/05/13 00:55:35;;;;;;;0.10;0.10;;;11.60;99.90;;;;;;5108839;28;20092;-85
2022/05/13 00:58:05;;;;;;;0.10;0.10;;;11.60;99.90;;;;;;5112789;28;20134;-81
2022/05/13 01:00:32;;;;;;;0.10;0.10;;;11.60;99.90;;;;;;5130199;28;20036;-85
2022/05/13 01:03:00;;;;;;;0.10;0.10;;;11.60;99.90;;;;;;5079844;28;20870;-85
2022/05/13 01:05:28;;;;;;;0.00;0.00;;;11.60;99.90;;;;;;5075965;28;20071;-85
2022/05/13 01:07:55;;;;;;;0.10;0.10;;;11.60;99.90;;;;;;5088880;28;20493;-82
2022/05/13 01:10:25;;;;;;;0.10;0.10;;;11.60;99.90;;;;;;5075945;28;20037;-84
2022/05/13 01:12:58;;;;;;;0.15;0.15;;;11.60;99.90;;;;;;5092443;28;20036;-82
2022/05/13 01:15:31;;;;;;;0.00;0.00;;;11.60;99.90;;;;;;5092308;28;20063;-82
2022/05/13 01:18:06;;;;;;;0.08;0.08;;;11.60;99.90;;;;;;5092262;28;20489;-82
2022/05/13 01:20:47;;;;;;;0.10;0.10;;;11.60;99.90;;;;;;5078560;28;20047;-82
2022/05/13 01:23:20;;;;;;;0.00;0.00;;;11.60;99.90;;;;;;5120346;28;20048;-81
2022/05/13 01:25:54;;;;;;;0.10;0.10;;;11.60;99.90;;;;;;5125740;28;20037;-85
2022/05/13 01:28:31;;;;;;;0.10;0.10;;;11.60;99.90;;;;;;5092494;28;20043;-85
2022/05/13 01:31:00;;;;;;;0.00;0.00;;;11.60;99.90;;;;;;5092188;28;20032;-85
2022/05/13 01:33:28;;;;;;;0.05;0.05;;;11.60;99.90;;;;;;5109145;28;20059;-81
2022/05/13 01:35:58;;;;;;;0.00;0.00;;;11.60;99.90;;;;;;5075287;28;20448;-85
2022/05/13 01:38:33;;;;;;;0.08;0.08;;;11.60;99.90;;;;;;5092143;28;20086;-81
2022/05/13 01:41:01;;;;;;;0.10;0.10;;;11.50;99.90;;;;;;5092241;28;20453;-82
2022/05/13 01:43:28;;;;;;;0.03;0.03;;;11.50;99.90;;;;;;5059022;28;20423;-81
2022/05/13 01:45:56;;;;;;;0.10;0.10;;;11.50;99.90;;;;;;5058488;28;20102;-81
2022/05/13 01:48:25;;;;;;;0.10;0.10;;;11.50;99.90;;;;;;5075109;28;20132;-84
2022/05/13 01:50:52;;;;;;;0.10;0.10;;;11.50;99.90;;;;;;5108111;28;20115;-81
2022/05/13 01:53:18;;;;;;;0.10;0.10;;;11.50;99.90;;;;;;5058566;28;20123;-85
2022/05/13 01:55:45;;;;;;;0.10;0.10;;;11.50;99.90;;;;;;5058297;28;20056;-85
2022/05/13 01:58:14;;;;;;;0.10;0.10;;;11.50;99.90;;;;;;5094982;28;20055;-82
2022/05/13 02:00:42;;;;;;;0.03;0.03;;;11.50;99.90;;;;;;5091280;28;20041;-85
2022/05/13 02:05:55;;;;;;;0.08;0.08;;;11.50;99.90;;;;;;5108299;28;20098;-81
2022/05/13 02:08:22;;;;;;;0.10;0.10;;;11.50;99.90;;;;;;5107880;28;20032;-85
2022/05/13 02:10:51;;;;;;;0.10;0.10;;;11.60;99.90;;;;;;5091631;28;20068;-81
2022/05/13 02:13:18;;;;;;;0.10;0.10;;;11.50;99.90;;;;;;5108139;28;20040;-81
2022/05/13 02:15:44;;;;;;;0.10;0.10;;;11.60;99.90;;;;;;5091268;28;20408;-81
2022/05/13 02:18:11;;;;;;;0.10;0.10;;;11.50;99.90;;;;;;5080564;28;20047;-81
2022/05/13 02:20:40;;;;;;;0.10;0.10;;;11.50;99.90;;;;;;5091081;28;20185;-81
2022/05/13 02:23:07;;;;;;;0.10;0.10;;;11.60;99.90;;;;;;5074328;28;20040;-82
2022/05/13 02:25:34;;;;;;;0.10;0.10;;;11.60;99.90;;;;;;5090885;28;20094;-85
2022/05/13 02:28:02;;;;;;;0.10;0.10;;;11.50;99.90;;;;;;5107775;28;20072;-81
2022/05/13 02:30:29;;;;;;;0.10;0.10;;;11.60;99.90;;;;;;5091024;28;20497;-85
2022/05/13 02:32:57;;;;;;;0.05;0.05;;;11.60;99.90;;;;;;5074414;28;20036;-82
2022/05/13 02:35:24;;;;;;;0.08;0.08;;;11.60;99.90;;;;;;5074758;28;20048;-85
2022/05/13 02:37:52;;;;;;;0.00;0.00;;;11.60;99.90;;;;;;5090789;28;20040;-85
2022/05/13 02:40:19;;;;;;;0.10;0.10;;;11.60;99.90;;;;;;5074468;28;20075;-85
2022/05/13 02:42:48;;;;;;;0.10;0.10;;;11.60;99.90;;;;;;5091078;28;20098;-85
2022/05/13 02:45:16;;;;;;;0.10;0.10;;;11.50;99.90;;;;;;5074049;28;20598;-85
2022/05/13 02:47:42;;;;;;;0.08;0.08;;;11.50;99.90;;;;;;5090686;28;20048;-86
2022/05/13 02:50:18;;;;;;;0.10;0.10;;;11.50;99.90;;;;;;5090666;28;20041;-82
2022/05/13 02:52:46;;;;;;;0.10;0.10;;;11.50;99.90;;;;;;5074975;28;20087;-82
2022/05/13 02:55:14;;;;;;;0.10;0.10;;;11.50;99.90;;;;;;5073777;28;20160;-82
2022/05/13 02:57:41;;;;;;;0.03;0.03;;;11.50;99.90;;;;;;5073549;28;20113;-82
2022/05/13 03:00:09;;;;;;;0.00;0.00;;;11.50;99.90;;;;;;5106863;28;20082;-85
2022/05/13 03:02:36;;;;;;;0.00;0.00;;;11.50;99.90;;;;;;5090452;28;20123;-85
2022/05/13 03:05:03;;;;;;;0.10;0.10;;;11.40;99.90;;;;;;5073382;28;20194;-81
2022/05/13 03:07:30;;;;;;;0.10;0.10;;;11.40;99.90;;;;;;5076807;28;20028;-85
2022/05/13 03:09:57;;;;;;;0.10;0.10;;;11.40;99.90;;;;;;5093551;28;20036;-82
2022/05/13 03:12:24;;;;;;;0.10;0.10;;;11.40;99.90;;;;;;5093416;28;20051;-82
2022/05/13 03:14:50;;;;;;;0.00;0.00;;;11.40;99.90;;;;;;5093545;28;20123;-86
2022/05/13 03:17:17;;;;;;;0.10;0.10;;;11.40;99.90;;;;;;5073460;28;20044;-82
2022/05/13 03:19:44;;;;;;;0.00;0.00;;;11.30;99.90;;;;;;5089322;28;20052;-85
2022/05/13 03:22:10;;;;;;;0.10;0.10;;;11.40;99.90;;;;;;5089829;28;20409;-82
2022/05/13 03:24:38;;;;;;;0.20;0.20;;;11.40;99.90;;;;;;5073379;28;20086;-86
2022/05/13 03:27:07;;;;;;;0.00;0.00;;;11.40;99.90;;;;;;5075091;28;20032;-82
2022/05/13 03:29:35;;;;;;;0.00;0.00;;;11.40;99.90;;;;;;5077332;28;20132;-82
2022/05/13 03:32:07;;;;;;;0.03;0.03;;;11.30;99.90;;;;;;5094221;28;20041;-82
2022/05/13 03:34:37;;;;;;;0.10;0.10;;;11.30;99.90;;;;;;5109993;28;20036;-82
2022/05/13 03:37:05;;;;;;;0.03;0.03;;;11.30;99.90;;;;;;5093055;28;20043;-82
2022/05/13 03:39:32;;;;;;;0.10;0.10;;;11.30;99.90;;;;;;5107581;28;20047;-82
2022/05/13 03:41:58;;;;;;;0.00;0.00;;;11.30;99.90;;;;;;5089731;28;20125;-85
2022/05/13 03:44:25;;;;;;;0.10;0.10;;;11.30;99.90;;;;;;5089681;28;20093;-81
2022/05/13 03:46:52;;;;;;;0.10;0.10;;;11.30;99.90;;;;;;5089508;28;20044;-85
2022/05/13 03:49:19;;;;;;;0.00;0.00;;;11.30;99.90;;;;;;5089401;28;20086;-85
2022/05/13 03:51:45;;;;;;;0.00;0.00;;;11.30;99.90;;;;;;5073157;28;20078;-82
2022/05/13 03:54:12;;;;;;;0.10;0.10;;;11.40;99.90;;;;;;5073031;28;20048;-85
2022/05/13 03:56:39;;;;;;;0.10;0.10;;;11.40;99.90;;;;;;5078760;28;20052;-85
2022/05/13 03:59:06;;;;;;;0.10;0.10;;;11.30;99.90;;;;;;5092616;28;20044;-81
2022/05/13 04:01:32;;;;;;;0.10;0.10;;;11.30;99.90;;;;;;5092409;28;20036;-82
2022/05/13 04:03:59;;;;;;;0.30;0.10;;;11.30;99.90;;;;;;5075980;28;20081;-85
2022/05/13 04:09:12;;;;;;;0.10;0.10;;;11.30;99.90;;;;;;5091815;28;20127;-82
2022/05/13 04:11:41;;;;;;;0.10;0.10;;;11.40;99.90;;;;;;5072492;28;20120;-85
2022/05/13 04:16:55;;;;;;;0.03;0.03;;;11.40;99.90;;;;;;5122295;28;20095;-82
2022/05/13 04:19:24;;;;;;;0.10;0.10;;;11.40;99.90;;;;;;5088788;28;20436;-81
2022/05/13 04:21:51;;;;;;;0.10;0.10;;;11.40;99.90;;;;;;5089265;28;20044;-85
2022/05/13 04:24:19;;;;;;;0.05;0.05;;;11.40;99.90;;;;;;5084403;28;20040;-81
2022/05/13 04:26:47;;;;;;;0.00;0.00;;;11.40;99.90;;;;;;5105548;28;20055;-81
2022/05/13 04:29:14;;;;;;;0.10;0.10;;;11.40;99.90;;;;;;5092114;28;20043;-84
2022/05/13 04:31:43;;;;;;;0.00;0.00;;;11.50;99.90;;;;;;5110617;28;20039;-85
2022/05/13 04:34:10;;;;;;;0.00;0.00;;;11.50;99.90;;;;;;5093312;28;20085;-85
2022/05/13 04:36:37;;;;;;;0.10;0.10;;;11.50;99.90;;;;;;5076294;28;20119;-81
2022/05/13 04:39:05;;;;;;;0.00;0.00;;;11.50;99.90;;;;;;5076734;28;20040;-85
2022/05/13 04:44:18;;;;;;;0.10;0.10;;;11.50;99.90;;;;;;5081328;28;20186;-81
2022/05/13 04:46:45;;;;;;;0.10;0.10;;;11.50;99.90;;;;;;5092975;28;20047;-85
2022/05/13 04:49:12;;;;;;;0.10;0.10;;;11.50;99.90;;;;;;5076773;28;20036;-81
2022/05/13 04:51:39;;;;;;;0.10;0.10;;;11.60;99.90;;;;;;5059922;28;20690;-85
2022/05/13 04:54:07;;;;;;;0.10;0.10;;;11.60;99.90;;;;;;5092856;28;20036;-81
2022/05/13 04:56:35;;;;;;;0.00;0.00;;;11.60;99.90;;;;;;5078241;28;20056;-82
2022/05/13 04:59:03;;;;;;;0.10;0.10;;;11.60;99.90;;;;;;5130101;28;20097;-82
2022/05/13 05:01:36;;;;;;;0.00;0.00;;;11.60;99.90;;;;;;5096036;28;20040;-85
2022/05/13 05:04:03;;;;;;;0.00;0.00;;;11.60;99.90;;;;;;5096396;28;20051;-81
2022/05/13 05:06:29;;;;;;;0.10;0.10;;;11.60;99.90;;;;;;5113122;28;20047;-82
2022/05/13 05:09:02;;;;;;;0.00;0.00;;;11.60;99.90;;;;;;5065419;28;20047;-82
2022/05/13 05:11:29;;;;;;;0.10;0.10;;;11.70;99.90;;;;;;5092210;28;20412;-81
2022/05/13 05:13:55;;;;;;;0.00;0.00;;;11.70;99.90;;;;;;5075677;28;20041;-81
2022/05/13 05:16:22;;;;;;;0.10;0.10;;;11.70;99.90;;;;;;5075784;28;20040;-85
2022/05/13 05:18:49;;;;;;;0.10;0.10;;;11.70;99.90;;;;;;5092290;28;20041;-82
2022/05/13 05:21:16;;;;;;;0.00;0.00;;;11.70;99.90;;;;;;5092390;28;20386;-85
2022/05/13 05:23:45;;;;;;;0.10;0.10;;;11.70;99.90;;;;;;5092413;28;20481;-85
2022/05/13 05:26:12;;;;;;;0.00;0.00;;;11.70;99.90;;;;;;5092193;28;20080;-82
2022/05/13 05:28:40;;;;;;;0.00;0.00;;;11.70;99.90;;;;;;5109001;28;20169;-81
2022/05/13 05:31:08;;;;;;;0.10;0.10;;;11.80;99.90;;;;;;5129302;28;20089;-81
2022/05/13 05:33:35;;;;;;;0.10;0.10;;;11.80;99.90;;;;;;5095506;28;20047;-85
2022/05/13 05:36:02;;;;;;;0.10;0.10;;;11.90;99.90;;;;;;5129084;28;20047;-86
2022/05/13 05:38:30;;;;;;;0.10;0.10;;;11.90;99.90;;;;;;5112190;28;20040;-85
2022/05/13 05:40:58;;;;;;;0.10;0.10;;;12.00;99.90;;;;;;5112244;28;20085;-86
2022/05/13 05:43:25;;;;;;;0.20;0.20;;;12.10;99.90;;;;;;5093917;28;20041;-84
2022/05/13 05:45:52;;;;;;;0.10;0.10;;;12.10;99.90;;;;;;5091716;28;20063;-82
2022/05/13 05:48:23;;;;;;;0.10;0.10;;;12.10;99.90;;;;;;5075220;28;20040;-85
2022/05/13 05:50:52;;;;;;;0.10;0.10;;;12.20;99.90;;;;;;5092073;28;20037;-82
2022/05/13 05:57:13;;;;;;;0.00;0.00;;;12.20;99.90;;;;;;5104679;28;20036;-85
2022/05/13 05:58:58;;;;;;;0.10;0.10;;;12.40;99.90;;;;;;5128679;28;20519;-82
2022/05/13 06:01:24;;;;;;;0.10;0.10;;;12.50;99.90;;;;;;5095096;28;20079;-85
2022/05/13 06:03:51;;;;;;;0.10;0.10;;;12.60;99.90;;;;;;5091482;28;20079;-82
2022/05/13 06:06:18;;;;;;;0.10;0.10;;;12.60;99.90;;;;;;5077754;28;20044;-82
2022/05/13 06:08:44;;;;;;;0.00;0.00;;;12.70;99.90;;;;;;5091719;28;20047;-85
2022/05/13 06:11:11;;;;;;;0.10;0.10;;;12.80;99.90;;;;;;5058409;28;20040;-86
2022/05/13 06:13:38;;;;;;;0.10;0.10;;;12.90;99.90;;;;;;5092281;28;20649;-87
2022/05/13 06:16:08;;;;;;;0.00;0.00;;;12.90;99.90;;;;;;5108181;28;20036;-86
2022/05/13 06:18:36;;;;;;;0.00;0.00;;;13.00;99.90;;;;;;5058178;28;20701;-82
2022/05/13 06:21:03;;;;;;;0.00;0.00;;;13.00;99.90;;;;;;5077496;28;20036;-81
2022/05/13 06:23:30;;;;;;;0.00;0.00;;;13.10;99.90;;;;;;5082264;28;20039;-80
2022/05/13 06:25:57;;;;;;;0.10;0.10;;;13.20;99.90;;;;;;5085594;28;20615;-87
2022/05/13 06:28:24;;;;;;;0.10;0.10;;;13.20;99.90;;;;;;5106423;28;20493;-86
2022/05/13 06:30:51;;;;;;;0.00;0.00;;;13.30;99.90;;;;;;5094746;28;20040;-81
2022/05/13 06:33:17;;;;;;;0.10;0.10;;;13.20;99.90;;;;;;5128224;28;20039;-87
2022/05/13 06:35:44;;;;;;;0.10;0.10;;;13.30;99.90;;;;;;5091679;28;20042;-86
2022/05/13 06:38:22;;;;;;;8.48;0.47;;;13.20;99.90;;;;;;5083012;28;20503;-81
2022/05/13 06:40:54;;;;;;;0.00;0.00;;;13.30;99.90;;;;;;5120677;28;20043;-87
2022/05/13 06:43:21;;;;;;;0.10;0.10;;;13.20;99.90;;;;;;5111269;28;20039;-81
2022/05/13 06:45:48;;;;;;;0.00;0.00;;;13.20;99.90;;;;;;5081849;28;20040;-81
2022/05/13 06:48:15;;;;;;;0.10;0.10;;;13.20;99.90;;;;;;5074579;28;20128;-81
2022/05/13 06:50:43;;;;;;;0.10;0.10;;;13.20;99.90;;;;;;5076971;28;20055;-86
2022/05/13 06:53:11;;;;;;;0.00;0.00;;;13.30;99.90;;;;;;5090726;28;20040;-82
2022/05/13 06:55:39;;;;;;;0.00;0.00;;;13.30;99.90;;;;;;5074108;28;20053;-81
2022/05/13 06:58:07;;;;;;;0.00;0.00;;;13.30;99.90;;;;;;5091041;28;20083;-86
2022/05/13 07:00:34;;;;;;;0.00;0.00;;;13.40;99.90;;;;;;5090067;28;20072;-81
2022/05/13 07:03:01;;;;;;;0.05;0.05;;;13.50;99.90;;;;;;5073735;28;20540;-84
2022/05/13 07:05:29;;;;;;;0.10;0.10;;;13.50;99.90;;;;;;5092841;28;20068;-85
2022/05/13 07:07:56;;;;;;;0.00;0.00;;;13.60;99.90;;;;;;5105900;28;20098;-85
2022/05/13 07:10:23;;;;;;;0.65;0.20;;;13.70;99.90;;;;;;5117702;28;20036;-85
2022/05/13 07:12:50;;;;;;;0.00;0.00;;;13.70;99.90;;;;;;5106485;28;20047;-81
2022/05/13 07:15:19;;;;;;;0.00;0.00;;;13.80;99.90;;;;;;5056888;28;20040;-80
2022/05/13 07:17:46;;;;;;;0.00;0.00;;;13.90;99.90;;;;;;5089306;28;20451;-80
2022/05/13 07:20:14;;;;;;;0.10;0.10;;;13.90;99.90;;;;;;5121505;28;20513;-80
2022/05/13 07:22:41;;;;;;;0.00;0.00;;;13.90;99.90;;;;;;5086369;28;20127;-80
2022/05/13 07:25:08;;;;;;;0.00;0.00;;;13.80;99.90;;;;;;5089785;28;20099;-84
2022/05/13 07:27:35;;;;;;;0.00;0.00;;;13.80;99.90;;;;;;5109621;28;20040;-81
2022/05/13 07:30:04;;;;;;;0.00;0.00;;;13.70;99.90;;;;;;5092291;28;20413;-80
2022/05/13 07:32:30;;;;;;;0.00;0.00;;;13.70;99.90;;;;;;5109862;28;20040;-85
2022/05/13 07:34:57;;;;;;;0.00;0.00;;;13.70;99.90;;;;;;5091220;28;20051;-80
2022/05/13 07:37:24;;;;;;;1.05;0.98;;;13.80;99.90;;;;;;5092708;28;20172;-80
2022/05/13 07:42:35;;;;;;;0.10;0.10;;;14.00;99.90;;;;;;5098014;28;20090;-85
2022/05/13 07:45:03;;;;;;;0.00;0.00;;;14.10;99.90;;;;;;5125586;28;20077;-80
2022/05/13 07:47:29;;;;;;;0.00;0.00;;;14.20;99.90;;;;;;5109820;28;20096;-79
2022/05/13 07:49:56;;;;;;;0.10;0.10;;;14.20;99.90;;;;;;5089331;28;20153;-85
2022/05/13 07:52:24;;;;;;;0.00;0.00;;;14.20;99.90;;;;;;5056760;28;20052;-86
2022/05/13 07:54:51;;;;;;;0.00;0.00;;;14.30;99.90;;;;;;5055970;28;20036;-86
2022/05/13 07:57:17;;;;;;;0.00;0.00;;;14.20;99.90;;;;;;5073091;28;20040;-86
2022/05/13 08:02:30;;;;;;;0.22;0.10;;;14.10;99.90;;;;;;5112815;28;20067;-87
2022/05/13 08:04:56;;;;;;;0.03;0.03;;;14.30;99.90;;;;;;5088655;28;20064;-81
2022/05/13 08:07:23;;;;;;;0.10;0.10;;;14.50;99.90;;;;;;5093537;28;20044;-80
2022/05/13 08:09:50;;;;;;;0.00;0.00;;;14.60;99.90;;;;;;5122696;28;20036;-80
2022/05/13 08:12:17;;;;;;;0.00;0.00;;;15.10;99.90;;;;;;5056448;28;20044;-80
2022/05/13 08:14:43;;;;;;;0.00;0.00;;;15.00;99.90;;;;;;5081379;28;20051;-83
2022/05/13 08:17:10;;;;;;;0.00;0.00;;;15.10;99.90;;;;;;5060316;28;20123;-86
2022/05/13 08:19:37;;;;;;;0.00;0.00;;;15.00;99.90;;;;;;5058031;28;20032;-85
2022/05/13 08:22:04;;;;;;;0.00;0.00;;;15.00;99.90;;;;;;5055809;28;20041;-83
2022/05/13 08:24:30;;;;;;;0.00;0.00;;;14.90;99.90;;;;;;5055990;28;20040;-82
2022/05/13 08:26:57;;;;;;;0.08;0.08;;;14.90;99.90;;;;;;5055714;28;20040;-80
2022/05/13 08:29:24;;;;;;;0.00;0.00;;;14.80;99.90;;;;;;5061727;28;20417;-79
2022/05/13 08:31:51;;;;;;;0.00;0.00;;;14.70;99.90;;;;;;5071982;28;20036;-84
2022/05/13 08:34:17;;;;;;;0.55;0.15;;;14.70;99.90;;;;;;5072293;28;20068;-84
2022/05/13 08:36:44;;;;;;;0.00;0.00;;;14.70;99.90;;;;;;5074760;28;20047;-79
2022/05/13 08:39:11;;;;;;;0.00;0.00;;;14.60;99.90;;;;;;5112650;28;20039;-80
2022/05/13 08:42:14;;;;;;;0.00;0.00;;;14.60;99.90;;;;;;5112414;28;20040;-84
2022/05/13 08:44:41;;;;;;;0.00;0.00;;;14.60;99.90;;;;;;5090540;28;20058;-83
2022/05/13 08:47:18;;;;;;;0.00;0.00;;;14.60;99.90;;;;;;5129445;28;20027;-84
2022/05/13 08:50:21;;;;;;;0.00;0.00;;;14.60;99.90;;;;;;5116438;28;20123;-80
2022/05/13 08:53:26;;;;;;;0.00;0.00;;;14.60;99.90;;;;;;5042333;28;20043;-83
2022/05/13 08:56:05;;;;;;;0.00;0.00;;;14.60;99.90;;;;;;5108169;28;20071;-79
2022/05/13 08:58:45;;;;;;;0.00;0.00;;;14.50;99.90;;;;;;5108726;28;20048;-84
2022/05/13 09:01:20;;;;;;;0.00;0.00;;;14.40;99.90;;;;;;5108489;28;20396;-80
2022/05/13 09:03:53;;;;;;;0.03;0.03;;;14.30;99.90;;;;;;5109170;28;20040;-84
2022/05/13 09:06:30;;;;;;;0.00;0.00;;;14.20;99.90;;;;;;5108673;28;20449;-84
2022/05/13 09:09:00;;;;;;;0.00;0.00;;;14.30;99.90;;;;;;5109157;28;20032;-84
2022/05/13 09:11:34;;;;;;;0.00;0.00;;;14.40;99.90;;;;;;5092702;28;20115;-84
2022/05/13 09:14:08;;;;;;;0.00;0.00;;;14.40;99.90;;;;;;5108990;28;20036;-84
2022/05/13 09:16:40;;;;;;;0.00;0.00;;;14.50;99.90;;;;;;5108711;28;20040;-80
2022/05/13 09:19:18;;;;;;;0.00;0.00;;;14.60;99.90;;;;;;5129266;28;20044;-80
2022/05/13 09:21:44;;;;;;;0.00;0.00;;;14.70;99.90;;;;;;5129228;28;20067;-80
2022/05/13 09:24:11;;;;;;;0.00;0.00;;;14.90;99.90;;;;;;5095209;28;20036;-81
2022/05/13 09:26:38;;;;;;;0.00;0.00;;;15.00;99.90;;;;;;5095278;28;20044;-80
2022/05/13 09:29:12;;;;;;;0.03;0.03;;;15.10;99.90;;;;;;5111986;28;20038;-84
2022/05/13 09:32:01;;;;;;;0.00;0.00;;;15.10;99.90;;;;;;5112041;28;20501;-84
2022/05/13 09:34:46;;;;;;;0.00;0.00;;;15.00;99.90;;;;;;5111912;28;20036;-80
2022/05/13 09:37:21;;;;;;;0.00;0.00;;;15.10;99.90;;;;;;5111960;28;20133;-84
2022/05/13 09:40:04;;;;;;;0.00;0.00;;;15.10;99.90;;;;;;5112383;28;20036;-80
2022/05/13 09:42:40;;;;;;;0.00;0.00;;;15.20;99.90;;;;;;5111987;28;20282;-80
2022/05/13 09:45:18;;;;;;;0.00;0.00;;;15.30;99.90;;;;;;5111734;28;20048;-80
2022/05/13 09:47:58;;;;;;;0.10;0.10;;;15.60;99.90;;;;;;5128877;28;20106;-84
2022/05/13 09:50:29;;;;;;;0.10;0.03;;;15.60;99.90;;;;;;5111680;28;20036;-80
2022/05/13 09:53:22;;;;;;;0.00;0.00;;;15.60;99.90;;;;;;5111878;28;20036;-83
2022/05/13 09:55:52;;;;;;;0.00;0.00;;;15.50;99.90;;;;;;5073722;28;20056;-80
2022/05/13 09:58:49;;;;;;;0.00;0.00;;;15.80;99.90;;;;;;5128906;28;20104;-86
2022/05/13 10:01:28;;;;;;;0.00;0.00;;;16.10;99.90;;;;;;5111589;28;20032;-80
2022/05/13 10:04:08;;;;;;;0.00;0.00;;;16.20;99.90;;;;;;5112224;28;20040;-81
2022/05/13 10:06:36;;;;;;;0.10;0.05;;;15.90;99.90;;;;;;5112581;28;20074;-80
2022/05/13 10:15:17;;;;;;;0.00;0.00;;;15.60;99.90;;;;;;5097361;28;20047;-80
2022/05/13 10:17:51;;;;;;;0.00;0.00;;;15.50;99.90;;;;;;5128616;28;20118;-80
2022/05/13 10:20:32;;;;;;;0.10;0.03;;;15.50;99.90;;;;;;5111490;28;20094;-80
2022/05/13 10:23:38;;;;;;;0.00;0.00;;;15.40;99.90;;;;;;5111577;28;20123;-80
2022/05/13 10:26:29;;;;;;;0.00;0.00;;;15.30;99.90;;;;;;5110959;28;20522;-80
2022/05/13 10:29:16;;;;;;;0.00;0.00;;;15.20;99.90;;;;;;5115576;28;20070;-79
2022/05/13 10:31:44;;;;;;;0.00;0.00;;;15.10;99.90;;;;;;5128921;28;20035;-80
2022/05/13 10:34:35;;;;;;;0.00;0.00;;;15.10;99.90;;;;;;5094590;28;20032;-79
2022/05/13 10:37:17;;;;;;;0.00;0.00;;;15.10;99.90;;;;;;5124890;28;20040;-80
2022/05/13 10:39:51;;;;;;;0.00;0.00;;;15.30;99.90;;;;;;5108013;28;20056;-84
2022/05/13 10:42:52;;;;;;;0.05;0.05;;;15.50;99.90;;;;;;5074654;28;20123;-79
2022/05/13 10:45:22;;;;;;;0.00;0.00;;;15.70;99.90;;;;;;5088187;28;20047;-86
2022/05/13 10:48:11;;;;;;;0.00;0.00;;;15.80;99.90;;;;;;5100004;28;20071;-84
2022/05/13 10:51:00;;;;;;;0.00;0.00;;;15.90;99.90;;;;;;5092912;28;20112;-86
2022/05/13 10:53:52;;;;;;;0.00;0.00;;;16.20;99.90;;;;;;5097339;28;20035;-86
2022/05/13 10:56:32;;;;;;;0.00;0.00;;;16.20;99.90;;;;;;5095473;28;20509;-80
2022/05/13 10:59:20;;;;;;;0.00;0.00;;;16.20;99.90;;;;;;5096699;28;20075;-85
2022/05/13 11:02:04;;;;;;;0.00;0.00;;;16.10;99.90;;;;;;5092105;28;20072;-86
2022/05/13 11:04:39;;;;;;;0.00;0.00;;;16.10;99.90;;;;;;5102708;28;20032;-86
2022/05/13 11:07:13;;;;;;;0.00;0.00;;;16.30;99.90;;;;;;5108664;28;20081;-80
2022/05/13 11:09:45;;;;;;;0.00;0.00;;;16.50;99.90;;;;;;5110439;28;20039;-79
2022/05/13 11:12:39;;;;;;;0.00;0.00;;;16.40;99.90;;;;;;5099847;28;20040;-85
2022/05/13 11:15:37;;;;;;;0.00;0.00;;;16.40;99.90;;;;;;5103829;28;20056;-86
2022/05/13 11:18:29;;;;;;;0.00;0.00;;;16.50;99.90;;;;;;5090541;28;20059;-82
2022/05/13 11:21:13;;;;;;;0.00;0.00;;;16.30;99.90;;;;;;5090061;28;20135;-86
2022/05/13 11:25:54;;;;;;;0.10;0.10;;;16.20;99.90;;;;;;5090817;28;20397;-86
2022/05/13 11:26:47;;;;;;;0.00;0.00;;;16.20;99.90;;;;;;5119527;28;20043;-85
2022/05/13 11:29:23;;;;;;;0.00;0.00;;;16.30;99.90;;;;;;5089879;28;20043;-85
2022/05/13 11:32:41;;;;;;;0.00;0.00;;;16.50;99.90;;;;;;5089671;28;20040;-85
2022/05/13 11:35:17;;;;;;;0.00;0.00;;;16.60;99.90;;;;;;5049233;28;20546;-79
2022/05/13 11:37:46;;;;;;;0.10;0.10;;;16.70;99.90;;;;;;5089201;28;20683;-85
2022/05/13 11:40:23;;;;;;;0.00;0.00;;;16.70;99.90;;;;;;5091427;28;20036;-86
2022/05/13 11:46:07;;;;;;;0.30;0.10;;;16.40;99.90;;;;;;5106132;28;20056;-80
2022/05/13 11:48:42;;;;;;;0.00;0.00;;;16.50;99.90;;;;;;5089847;28;20438;-80
2022/05/13 11:51:27;;;;;;;0.00;0.00;;;16.70;99.90;;;;;;5088869;28;20174;-85
2022/05/13 11:54:10;;;;;;;0.30;0.15;;;17.20;99.90;;;;;;5089635;28;20052;-85
2022/05/13 11:56:38;;;;;;;0.00;0.00;;;17.20;99.90;;;;;;5106184;28;20067;-85
2022/05/13 11:59:10;;;;;;;0.10;0.10;;;17.10;99.90;;;;;;5072801;28;20044;-80
2022/05/13 12:01:43;;;;;;;0.20;0.10;;;17.00;99.90;;;;;;5089210;28;20505;-80
2022/05/13 12:04:13;;;;;;;0.00;0.00;;;16.90;99.90;;;;;;5105804;28;20087;-80
2022/05/13 12:06:51;;;;;;;0.10;0.10;;;16.70;99.90;;;;;;5089651;28;20055;-87
2022/05/13 12:09:33;;;;;;;0.20;0.10;;;16.70;99.90;;;;;;5089234;28;20167;-80
2022/05/13 12:12:30;;;;;;;0.00;0.00;;;16.70;99.90;;;;;;5105891;28;20504;-80
2022/05/13 12:15:28;;;;;;;0.00;0.00;;;16.60;99.90;;;;;;5097247;28;20549;-87
2022/05/13 12:18:18;;;;;;;0.00;0.00;;;16.70;99.90;;;;;;5089482;28;20050;-86
2022/05/13 12:20:55;;;;;;;0.00;0.00;;;16.50;99.90;;;;;;5103116;28;20035;-80
2022/05/13 12:23:48;;;;;;;0.00;0.00;;;16.50;99.90;;;;;;5103051;28;20038;-86
2022/05/13 12:26:14;;;;;;;0.00;0.00;;;16.60;99.90;;;;;;5088956;28;20155;-85
2022/05/13 12:28:41;;;;;;;0.00;0.00;;;16.70;99.90;;;;;;5072762;28;20032;-86
2022/05/13 12:31:27;;;;;;;0.00;0.00;;;16.60;99.90;;;;;;5089625;28;20056;-86
2022/05/13 12:40:10;;;;;;;0.10;0.10;;;16.50;99.90;;;;;;5117045;28;20049;-84
2022/05/13 12:42:44;;;;;;;0.00;0.00;;;16.50;99.90;;;;;;5081531;28;20076;-86
2022/05/13 12:45:18;;;;;;;0.00;0.00;;;16.60;99.90;;;;;;5105376;28;20579;-80
2022/05/13 12:47:57;;;;;;;0.00;0.00;;;16.60;99.90;;;;;;5089125;28;20045;-86
2022/05/13 12:50:44;;;;;;;0.00;0.00;;;16.80;99.90;;;;;;5089385;28;20040;-87
2022/05/13 12:53:29;;;;;;;0.00;0.00;;;17.10;99.90;;;;;;5093477;28;20040;-87
2022/05/13 12:56:09;;;;;;;0.30;0.20;;;17.30;99.90;;;;;;5092868;28;20064;-81
2022/05/13 12:58:47;;;;;;;0.00;0.00;;;17.30;99.90;;;;;;5092806;28;20046;-80
2022/05/13 13:01:16;;;;;;;0.00;0.00;;;17.30;99.90;;;;;;5092782;28;20044;-80
2022/05/13 13:03:48;;;;;;;0.00;0.00;;;17.20;99.90;;;;;;5113390;28;20552;-87
2022/05/13 13:06:20;;;;;;;0.10;0.10;;;17.10;99.90;;;;;;5113138;28;20076;-80
2022/05/13 13:08:51;;;;;;;0.00;0.00;;;17.10;99.90;;;;;;5112855;28;20032;-81
2022/05/13 13:11:42;;;;;;;0.10;0.10;;;17.00;99.90;;;;;;5112704;28;20071;-86
2022/05/13 13:14:09;;;;;;;0.00;0.00;;;17.10;99.90;;;;;;5112428;28;20040;-80
2022/05/13 13:16:57;;;;;;;0.00;0.00;;;17.00;99.90;;;;;;5112731;28;20043;-86
2022/05/13 13:19:27;;;;;;;0.00;0.00;;;16.90;99.90;;;;;;5129399;28;20047;-79
2022/05/13 13:22:10;;;;;;;0.00;0.00;;;16.90;99.90;;;;;;5129938;28;20055;-89
2022/05/13 13:24:44;;;;;;;0.10;0.03;;;17.00;99.90;;;;;;5097523;28;20036;-85
2022/05/13 13:27:17;;;;;;;0.10;0.00;;;17.10;99.90;;;;;;5093419;28;20086;-85
2022/05/13 13:29:47;;;;;;;0.00;0.00;;;17.20;99.90;;;;;;5091974;28;20084;-85
2022/05/13 13:32:21;;;;;;;9.25;0.25;;;17.20;99.90;;;;;;5109211;28;20059;-93
2022/05/13 13:34:56;;;;;;;0.00;0.00;;;17.20;99.90;;;;;;5093364;28;20087;-85
2022/05/13 13:37:26;;;;;;;0.00;0.00;;;17.20;99.90;;;;;;5092930;28;20047;-93
2022/05/13 13:39:54;;;;;;;0.10;0.10;;;17.20;99.80;;;;;;5093627;28;20035;-94
2022/05/13 13:42:21;;;;;;;0.00;0.00;;;17.50;99.90;;;;;;5109436;28;20036;-89
2022/05/13 13:45:05;;;;;;;0.45;0.08;;;17.80;99.90;;;;;;5113501;28;20035;-95
2022/05/13 13:47:39;;;;;;;0.30;0.10;;;18.00;99.50;;;;;;5113763;28;20081;-86